Latest Coastal Weather Observations for Mandora

IDW60701

Issued at 4:12 am WST Thursday 29 January 2015 (issued every 10 minutes, with the page automatically refreshed every 10 minutes)

About coastal observations | Map of coastal stations | Coastal observations for WA | Marine services | Other Formats
Station Details ID: 004019 Name: MANDORA Lat: -19.74 Lon: 120.84 Height: 7.5 m
Data from the previous 72 hours. | See also: Recent months at Mandora
Date/Time
WST
Temp

°C
Wind Pressure Rain
since 9am
mm
Weather Cloud Vis
km
Sea
Height
m
Swell
Dir
 
Speed
knots
Gust
knots
hPa Trend Height
m
Period
s
Dir
29/04:00am 25.5 S 5 6 1005.5 - 0.0 - - - - - - -
29/03:30am 25.8 S 5 8 1005.2 - 0.0 - - - - - - -
29/03:00am 26.2 WSW 4 5 1004.9 - 0.0 - - - - - - -
29/02:30am 26.9 WSW 4 6 1004.9 - 0.0 - - - - - - -
29/02:00am 27.1 W 6 9 1004.5 - 0.0 - - - - - - -
29/01:30am 27.2 W 8 13 1004.3 - 0.0 - - - - - - -
29/01:00am 27.3 W 9 12 1004.5 - 0.0 - - - - - - -
29/12:30am 27.2 W 9 13 1004.5 - 0.0 - - - - - - -
29/12:00am 27.3 WNW 9 13 1004.7 - 0.0 - - - - - - -
 
Date/Time
WST
Temp

°C
Wind Pressure Rain
since 9am
mm
Weather Cloud Vis
km
Sea
Height
m
Swell
Dir
 
Speed
knots
Gust
knots
hPa Trend Height
m
Period
s
Dir
28/11:30pm 27.3 WNW 9 13 1005.0 - 0.0 - - - - - - -
28/11:00pm 27.4 WNW 9 12 1005.3 - 0.0 - - - - - - -
28/10:30pm 27.4 WNW 9 13 1005.4 - 0.0 - - - - - - -
28/10:00pm 27.4 WNW 8 11 1005.6 - 0.0 - - - - - - -
28/09:30pm 27.6 WNW 8 12 1005.6 - 0.0 - - - - - - -
28/09:00pm 27.7 WNW 8 12 1005.4 - 0.0 - - - - - - -
28/08:30pm 27.8 WNW 8 11 1005.5 - 0.0 - - - - - - -
28/08:00pm 28.0 WNW 8 11 1005.1 - 0.0 - - - - - - -
28/07:30pm 28.1 WNW 7 11 1004.9 - 0.0 - - - - - - -
28/07:00pm 28.4 WNW 9 13 1004.6 - 0.0 - - - - - - -
28/06:30pm 29.0 WNW 10 14 1004.4 - 0.0 - - - - - - -
28/06:00pm 29.8 WNW 11 15 1003.9 - 0.0 - - - - - - -
28/05:30pm 30.4 WNW 12 16 1003.9 - 0.0 - - - - - - -
28/05:00pm 31.0 NW 11 16 1003.6 - 0.0 - - - - - - -
28/04:30pm 31.6 NW 10 17 1003.6 - 0.0 - - - - - - -
28/04:00pm 31.8 NW 12 17 1003.7 - 0.0 - - - - - - -
28/03:30pm 32.2 NW 11 16 1003.7 - 0.0 - - - - - - -
28/03:00pm 31.9 NW 12 17 1004.1 - 0.0 - - - - - - -
28/02:30pm 32.2 NW 12 17 1004.4 - 0.0 - - - - - - -
28/02:00pm 33.3 NNW 11 17 1004.7 - 0.0 - - - - - - -
28/01:30pm 33.2 NNW 11 16 1004.9 - 0.0 - - - - - - -
28/01:00pm 33.1 N 11 16 1005.1 - 0.0 - - - - - - -
28/12:30pm 33.0 NNW 13 18 1005.3 - 0.0 - - - - - - -
28/12:00pm 32.9 NNW 11 16 1005.8 - 0.0 - - - - - - -
28/11:30am 33.1 N 8 13 1006.3 - 0.0 - - - - - - -
28/11:00am 32.9 NW 6 11 1006.6 - 0.0 - - - - - - -
28/10:30am 32.5 W 6 13 1007.0 - 0.0 - - - - - - -
28/10:00am 31.9 WNW 6 10 1007.1 - 0.0 - - - - - - -
28/09:30am 31.5 W 8 11 1007.1 - 0.0 - - - - - - -
28/09:00am 30.8 WNW 5 9 1007.3 - 0.0 - - - - - - -
28/08:30am 30.0 W 7 10 1007.5 - 0.0 - - - - - - -
28/08:00am 29.5 WSW 8 12 1007.3 - 0.0 - - - - - - -
28/07:30am 28.7 SSW 9 11 1007.3 - 0.0 - - - - - - -
28/07:00am 27.4 SSW 6 8 1007.1 - 0.0 - - - - - - -
28/06:30am 26.0 S 1 3 1007.2 - 0.0 - - - - - - -
28/06:00am 25.0 SW 4 5 1006.4 - 0.0 - - - - - - -
28/05:30am 25.1 SSW 3 4 1005.9 - 0.0 - - - - - - -
28/05:00am 25.6 SSW 5 6 1005.7 - 0.0 - - - - - - -
28/04:30am 26.1 SSW 4 5 1005.3 - 0.0 - - - - - - -
28/04:00am 26.3 SSW 4 6 1005.4 - 0.0 - - - - - - -
28/03:30am 26.1 SSW 5 6 1005.2 - 0.0 - - - - - - -
28/03:00am 26.3 WSW 5 6 1004.8 - 0.0 - - - - - - -
28/02:30am 26.5 W 4 5 1004.8 - 0.0 - - - - - - -
28/02:00am 27.0 W 5 7 1005.1 - 0.0 - - - - - - -
28/01:30am 27.3 W 4 6 1005.2 - 0.0 - - - - - - -
28/01:00am 27.6 WNW 6 9 1005.2 - 0.0 - - - - - - -
28/12:30am 27.6 WNW 6 9 1005.4 - 0.0 - - - - - - -
28/12:00am 27.9 WNW 6 9 1005.7 - 0.0 - - - - - - -
 
Date/Time
WST
Temp

°C
Wind Pressure Rain
since 9am
mm
Weather Cloud Vis
km
Sea
Height
m
Swell
Dir
 
Speed
knots
Gust
knots
hPa Trend Height
m
Period
s
Dir
27/11:30pm 28.1 WNW 7 10 1005.9 - 0.0 - - - - - - -
27/11:00pm 28.1 NW 8 11 1006.1 - 0.0 - - - - - - -
27/10:30pm 27.9 WNW 7 11 1006.4 - 0.0 - - - - - - -
27/10:00pm 28.0 WNW 8 11 1006.4 - 0.0 - - - - - - -
27/09:30pm 28.1 WNW 7 11 1006.2 - 0.0 - - - - - - -
27/09:00pm 28.2 NW 8 13 1005.9 - 0.0 - - - - - - -
27/08:30pm 28.3 NW 10 14 1005.7 - 0.0 - - - - - - -
27/08:00pm 28.4 NW 10 14 1005.4 - 0.0 - - - - - - -
27/07:30pm 28.5 NW 9 14 1005.6 - 0.0 - - - - - - -
27/07:00pm 28.8 NW 10 16 1005.3 - 0.0 - - - - - - -
27/06:30pm 29.3 NW 10 16 1005.3 - 0.0 - - - - - - -
27/06:00pm 30.1 NW 12 16 1004.8 - 0.0 - - - - - - -
27/05:30pm 30.7 NW 12 18 1004.5 - 0.0 - - - - - - -
27/05:00pm 31.4 NW 13 19 1003.9 - 0.0 - - - - - - -
27/04:30pm 31.6 NW 15 19 1003.9 - 0.0 - - - - - - -
27/04:00pm 31.8 NW 15 23 1003.7 - 0.0 - - - - - - -
27/03:30pm 33.0 NW 14 19 1003.8 - 0.0 - - - - - - -
27/03:00pm 33.1 NW 14 19 1004.1 - 0.0 - - - - - - -
27/02:30pm 33.5 NW 13 19 1004.5 - 0.0 - - - - - - -
27/02:00pm 33.6 NW 12 21 1004.8 - 0.0 - - - - - - -
27/01:30pm 33.7 NW 12 18 1005.0 - 0.0 - - - - - - -
27/01:00pm 33.6 NW 11 17 1005.3 - 0.0 - - - - - - -
27/12:30pm 33.9 NW 10 14 1005.7 - 0.0 - - - - - - -
27/12:00pm 33.8 NW 10 15 1005.9 - 0.0 - - - - - - -
27/11:30am 33.7 NW 10 14 1006.6 - 0.0 - - - - - - -
27/11:00am 33.6 NW 10 14 1006.9 - 0.0 - - - - - - -
27/10:30am 33.4 NW 9 15 1007.4 - 0.0 - - - - - - -
27/10:00am 33.5 WNW 10 17 1007.8 - 0.0 - - - - - - -
27/09:30am 32.7 W 8 13 1008.0 - 0.0 - - - - - - -
27/09:00am 31.4 WNW 8 13 1007.9 - 0.2 - - - - - - -
27/08:30am 31.9 W 7 10 1008.3 - 0.2 - - - - - - -
27/08:00am 31.2 WSW 7 11 1008.2 - 0.2 - - - - - - -
27/07:30am 30.4 WSW 8 13 1008.0 - 0.2 - - - - - - -
27/07:00am 29.8 WSW 7 11 1007.7 - 0.2 - - - - - - -
27/06:30am 28.5 W 6 8 1007.6 - 0.2 - - - - - - -
27/06:00am 28.1 WNW 6 8 1007.2 - 0.2 - - - - - - -
27/05:30am 28.3 W 6 8 1007.0 - 0.2 - - - - - - -
27/05:00am 28.5 WNW 6 9 1007.0 - 0.2 - - - - - - -
27/04:30am 28.4 NW 5 7 1006.8 - 0.2 - - - - - - -
27/04:00am 28.3 WNW 7 11 1006.3 - 0.2 - - - - - - -
27/03:30am 28.5 NW 7 10 1006.4 - 0.2 - - - - - - -
27/03:00am 28.2 NW 7 10 1006.4 - 0.2 - - - - - - -
27/02:30am 28.3 NW 7 10 1006.6 - 0.2 - - - - - - -
27/02:00am 28.5 NW 8 11 1006.5 - 0.2 - - - - - - -
27/01:30am 28.5 NW 7 11 1006.5 - 0.2 - - - - - - -
27/01:00am 28.9 NNW 8 12 1006.7 - 0.2 - - - - - - -
27/12:30am 29.0 NW 8 11 1006.8 - 0.2 - - - - - - -
27/12:00am 28.9 NW 8 11 1006.7 - 0.2 - - - - - - -
 
Date/Time
WST
Temp

°C
Wind Pressure Rain
since 9am
mm
Weather Cloud Vis
km
Sea
Height
m
Swell
Dir
 
Speed
knots
Gust
knots
hPa Trend Height
m
Period
s
Dir
26/11:30pm 28.7 NW 7 11 1006.7 - 0.2 - - - - - - -
26/11:00pm 28.6 NW 8 11 1006.8 - 0.2 - - - - - - -
26/10:30pm 28.9 NW 6 9 1007.1 - 0.2 - - - - - - -
26/10:00pm 28.8 NW 6 8 1007.2 - 0.2 - - - - - - -
26/09:30pm 28.9 NW 6 8 1007.1 - 0.2 - - - - - - -
26/09:00pm 28.6 NW 4 6 1006.9 - 0.2 - - - - - - -
26/08:30pm 28.9 NW 6 8 1006.6 - 0.2 - - - - - - -
26/08:00pm 29.0 WNW 5 8 1006.2 - 0.2 - - - - - - -
26/07:30pm 29.3 WNW 7 10 1005.9 - 0.2 - - - - - - -
26/07:00pm 29.5 NW 9 13 1005.4 - 0.2 - - - - - - -
26/06:30pm 29.7 NW 10 14 1005.3 - 0.2 - - - - - - -
26/06:00pm 30.2 NW 11 16 1004.8 - 0.2 - - - - - - -
26/05:30pm 31.1 NW 12 17 1004.9 - 0.2 - - - - - - -
26/05:00pm 31.5 NW 12 16 1004.8 - 0.2 - - - - - - -
26/04:30pm 32.1 NW 13 17 1004.7 - 0.2 - - - - - - -
26/04:00pm 32.5 NNW 13 17 1004.9 - 0.2 - - - - - - -
26/03:30pm 32.7 NNW 12 16 1005.1 - 0.2 - - - - - - -
26/03:00pm 32.7 NNW 12 17 1004.9 - 0.2 - - - - - - -
26/02:30pm 32.9 NNW 13 20 1005.2 - 0.2 - - - - - - -
26/02:00pm 33.6 NNW 11 16 1005.7 - 0.2 - - - - - - -
26/01:30pm 33.5 NNW 11 19 1006.2 - 0.2 - - - - - - -
26/01:00pm 33.6 NNW 10 16 1006.4 - 0.2 - - - - - - -
26/12:30pm 33.2 NNW 9 12 1006.6 - 0.2 - - - - - - -
26/12:00pm 33.1 N 12 17 1006.8 - 0.2 - - - - - - -
26/11:30am 33.3 N 11 16 1007.3 - 0.2 - - - - - - -
26/11:00am 32.8 N 11 16 1007.9 - 0.2 - - - - - - -
26/10:30am 32.8 N 10 13 1008.0 - 0.2 - - - - - - -
26/10:00am 32.5 N 7 11 1008.4 - 0.2 - - - - - - -
26/09:30am 32.5 N 5 8 1008.6 - 0.0 - - - - - - -
26/09:00am 31.2 N 5 8 1008.9 - 1.8 - - - - - - -
26/08:30am 31.7 WNW 2 6 1008.7 - 1.8 - - - - - - -
26/08:00am 31.1 CALM 0 3 1008.6 - 1.8 - - - - - - -
26/07:30am 29.5 NNE 2 5 1008.4 - 1.8 - - - - - - -
26/07:00am 28.3 N 4 6 1008.8 - 1.8 - - - - - - -
26/06:30am 27.7 N 1 3 1009.0 - 1.8 - - - - - - -
26/06:00am 27.2 E 4 6 1008.0 - 1.8 - - - - - - -
26/05:30am 28.0 S 6 9 1008.4 - 0.0 - - - - - - -
26/05:00am 27.6 SSE 6 9 1008.0 - 0.0 - - - - - - -
26/04:30am 27.1 E 2 4 1007.1 - 0.0 - - - - - - -

Other Formats:

Comma delimited format used in spreadsheet applications
http://www.bom.gov.au/fwo/IDW60701/IDW60701.94200.axf

JavaScript Object Notation format (JSON) in row-major order
http://www.bom.gov.au/fwo/IDW60701/IDW60701.94200.json